This is the latest recevied weather packets stored in our database for station/object NN3A-3. If no packets are shown the sender has not sent any weather packets the latest 10 day(s).
| Time | Temp. | Humidity | Pressure | Rain* | Wind** | Luminosity | Snow |
|---|---|---|---|---|---|---|---|
| 1777742115 | 10° C | 78% | 1013.3 hPa | 0 mm | - | - | - |
| 1777741516 | 10° C | 78% | 1013.3 hPa | 0 mm | - | - | - |
| 1777741216 | 8.89° C | 77% | 1013.7 hPa | 0 mm | - | - | - |
| 1777740916 | 10° C | 75% | 1013.7 hPa | 0 mm | - | - | - |
| 1777740616 | 10° C | 76% | 1013.7 hPa | 0 mm | - | - | - |
| 1777740316 | 10° C | 76% | 1013.7 hPa | 0 mm | - | - | - |
| 1777739716 | 8.89° C | 78% | 1013.7 hPa | 0 mm | - | - | - |
| 1777739116 | 9.44° C | 76% | 1013.7 hPa | 0 mm | - | - | - |
| 1777738518 | 9.44° C | 76% | 1013.7 hPa | 0 mm | - | - | - |
| 1777737918 | 8.89° C | 75% | 1013.7 hPa | 0 mm | - | - | - |
| 1777737617 | 10° C | 75% | 1013.7 hPa | 0 mm | - | - | - |
| 1777737018 | 11.11° C | 75% | 1013.7 hPa | 0 mm | - | - | - |
| 1777736118 | 10° C | 81% | 1013.7 hPa | 0 mm | - | - | - |
| 1777735519 | 9.44° C | 81% | 1013.7 hPa | 0 mm | - | - | - |
| 1777735220 | 8.89° C | 80% | 1013.7 hPa | 0 mm | - | - | - |
| 1777734919 | 9.44° C | 81% | 1013.7 hPa | 0 mm | - | - | - |
| 1777734319 | 8.89° C | 82% | 1013.7 hPa | 0 mm | - | - | - |
| 1777734019 | 8.89° C | 83% | 1013.7 hPa | 0 mm | - | - | - |
| 1777733720 | 8.33° C | 83% | 1013.7 hPa | 0 mm | - | - | - |
| 1777733423 | 9.44° C | 83% | 1013.7 hPa | 0 mm | - | - | - |
| 1777733120 | 9.44° C | 83% | 1013.7 hPa | 0 mm | - | - | - |
| 1777732819 | 8.89° C | 84% | 1013.7 hPa | 0 mm | - | - | - |
| 1777732520 | 8.33° C | 85% | 1013.7 hPa | 0 mm | - | - | - |
| 1777730421 | 6.67° C | 88% | 1013.7 hPa | 0 mm | - | - | - |
| 1777730121 | 7.78° C | 87% | 1013.7 hPa | 0 mm | - | - | - |
* Rain latest hour (hover to see other rain measurements)
** Current wind speed in m/s (hover to see current wind gust speed)